Time,TemperatureF,DewpointF,PressureIn,WindDirection,WindDirectionDegrees,WindSpeedMPH,WindSpeedGustMPH,Humidity,HourlyPrecipIn,Conditions,Clouds,dailyrainin,SolarRadiationWatts/m^2,SoftwareType,DateUTC
2013-12-03 00:02:00,30.0,29.0,-100.00,NE,43,5.0,8.0,97,0.00,,,0.00,0.000000,,2013-12-03 06:02:00,
2013-12-03 00:42:00,30.0,29.0,-100.00,NE,50,6.0,9.0,97,0.00,,,0.00,0.000000,,2013-12-03 06:42:00,
2013-12-03 00:53:00,30.0,29.0,-100.00,NE,50,6.0,9.0,97,0.00,,,0.00,0.000000,,2013-12-03 06:53:00,
2013-12-03 01:02:00,30.0,29.0,-100.00,NE,50,6.0,9.0,97,0.00,,,0.00,0.000000,,2013-12-03 07:02:00,
2013-12-03 01:42:00,30.0,29.0,-100.00,NE,43,4.0,11.0,97,0.00,,,0.00,0.000000,,2013-12-03 07:42:00,
2013-12-03 01:52:00,30.0,29.0,-100.00,NE,43,4.0,11.0,97,0.00,,,0.00,0.000000,,2013-12-03 07:52:00,
2013-12-03 02:02:00,30.0,29.0,-100.00,NE,43,4.0,11.0,97,0.00,,,0.00,0.000000,,2013-12-03 08:02:00,
2013-12-03 02:42:00,30.0,29.0,-100.00,NE,40,4.0,8.0,97,0.00,,,0.00,0.000000,,2013-12-03 08:42:00,
2013-12-03 02:53:00,30.0,29.0,-100.00,NE,40,4.0,8.0,97,0.00,,,0.00,0.000000,,2013-12-03 08:53:00,
2013-12-03 03:01:00,30.0,29.0,-100.00,NE,40,4.0,8.0,97,0.00,,,0.00,0.000000,,2013-12-03 09:01:00,
2013-12-03 03:43:00,30.0,29.0,-100.00,ENE,57,5.0,11.0,97,0.00,,,0.00,0.000000,,2013-12-03 09:43:00,
2013-12-03 03:54:00,30.0,29.0,-100.00,ENE,57,5.0,11.0,97,0.00,,,0.00,0.000000,,2013-12-03 09:54:00,
2013-12-03 04:03:00,30.0,29.0,-100.00,ENE,57,5.0,11.0,97,0.00,,,0.00,0.000000,,2013-12-03 10:03:00,
2013-12-03 04:42:00,30.0,29.0,-100.00,NE,40,5.0,10.0,97,0.00,,,0.00,0.000000,,2013-12-03 10:42:00,
2013-12-03 04:53:00,30.0,29.0,-100.00,NE,40,5.0,10.0,97,0.00,,,0.00,0.000000,,2013-12-03 10:53:00,
2013-12-03 05:03:00,30.0,29.0,-100.00,NE,40,5.0,10.0,97,0.00,,,0.00,0.000000,,2013-12-03 11:03:00,
2013-12-03 05:42:00,30.0,29.0,-100.00,NE,44,4.0,8.0,96,0.00,,,0.00,0.000000,,2013-12-03 11:42:00,
2013-12-03 05:52:00,30.0,29.0,-100.00,NE,44,4.0,8.0,96,0.00,,,0.00,0.000000,,2013-12-03 11:52:00,
2013-12-03 06:02:00,30.0,29.0,-100.00,NE,44,4.0,8.0,96,0.00,,,0.00,0.000000,,2013-12-03 12:02:00,
2013-12-03 06:42:00,30.0,29.0,-100.00,NE,54,4.0,8.0,96,0.00,,,0.00,0.000000,,2013-12-03 12:42:00,
2013-12-03 06:52:00,30.0,29.0,-100.00,NE,54,4.0,8.0,96,0.00,,,0.00,0.000000,,2013-12-03 12:52:00,
2013-12-03 07:02:00,30.0,29.0,-100.00,NE,54,4.0,8.0,96,0.00,,,0.00,0.000000,,2013-12-03 13:02:00,
2013-12-03 07:42:00,30.0,29.0,-100.00,NE,42,5.0,9.0,96,0.00,,,0.00,0.000000,,2013-12-03 13:42:00,
2013-12-03 07:52:00,30.0,29.0,-100.00,NE,42,5.0,9.0,96,0.00,,,0.00,0.000000,,2013-12-03 13:52:00,
2013-12-03 08:02:00,30.0,29.0,-100.00,NE,42,5.0,9.0,96,0.00,,,0.00,0.000000,,2013-12-03 14:02:00,
2013-12-03 08:42:00,30.0,29.0,-100.00,NE,53,6.0,9.0,96,0.00,,,0.00,0.000000,,2013-12-03 14:42:00,
2013-12-03 08:52:00,30.0,29.0,-100.00,NE,53,6.0,9.0,96,0.00,,,0.00,0.000000,,2013-12-03 14:52:00,
2013-12-03 09:02:00,30.0,29.0,-100.00,NE,53,6.0,9.0,96,0.00,,,0.00,0.000000,,2013-12-03 15:02:00,
2013-12-03 09:44:00,30.0,29.0,-100.00,ENE,64,6.0,10.0,97,0.00,,,0.00,16.000000,,2013-12-03 15:44:00,
2013-12-03 09:54:00,30.0,29.0,-100.00,ENE,64,6.0,10.0,97,0.00,,,0.00,16.000000,,2013-12-03 15:54:00,
2013-12-03 10:03:00,30.0,29.0,-100.00,ENE,64,6.0,10.0,97,0.00,,,0.00,16.000000,,2013-12-03 16:03:00,
2013-12-03 10:43:00,30.0,29.0,-100.00,NE,49,3.0,8.0,97,0.00,,,0.00,39.000000,,2013-12-03 16:43:00,
2013-12-03 10:52:00,30.0,29.0,-100.00,NE,49,3.0,8.0,97,0.00,,,0.00,39.000000,,2013-12-03 16:52:00,
2013-12-03 11:02:00,30.0,29.0,-100.00,NE,49,3.0,8.0,97,0.00,,,0.00,39.000000,,2013-12-03 17:02:00,
2013-12-03 11:42:00,31.0,30.0,-100.00,NE,47,5.0,8.0,97,0.00,,,0.00,54.000000,,2013-12-03 17:42:00,
2013-12-03 11:53:00,31.0,30.0,-100.00,NE,47,5.0,8.0,97,0.00,,,0.00,54.000000,,2013-12-03 17:53:00,
2013-12-03 12:02:00,31.0,30.0,-100.00,NE,47,5.0,8.0,97,0.00,,,0.00,54.000000,,2013-12-03 18:02:00,
2013-12-03 12:42:00,32.0,31.0,-100.00,ENE,63,5.0,10.0,97,0.00,,,0.00,64.000000,,2013-12-03 18:42:00,
2013-12-03 12:53:00,32.0,31.0,-100.00,ENE,63,5.0,10.0,97,0.00,,,0.00,64.000000,,2013-12-03 18:53:00,
2013-12-03 13:02:00,32.0,31.0,-100.00,ENE,63,5.0,10.0,97,0.00,,,0.00,64.000000,,2013-12-03 19:02:00,
2013-12-03 13:42:00,31.0,30.0,-100.00,ENE,61,6.0,10.0,97,0.00,,,0.00,47.000000,,2013-12-03 19:42:00,
2013-12-03 13:52:00,31.0,30.0,-100.00,ENE,61,6.0,10.0,97,0.00,,,0.00,47.000000,,2013-12-03 19:52:00,
2013-12-03 14:02:00,31.0,30.0,-100.00,ENE,61,6.0,10.0,97,0.00,,,0.00,47.000000,,2013-12-03 20:02:00,
2013-12-03 14:42:00,31.0,30.0,-100.00,ENE,71,7.0,12.0,96,0.00,,,0.00,43.000000,,2013-12-03 20:42:00,
2013-12-03 14:53:00,31.0,30.0,-100.00,ENE,71,7.0,12.0,96,0.00,,,0.00,43.000000,,2013-12-03 20:53:00,
2013-12-03 15:02:00,31.0,30.0,-100.00,ENE,71,7.0,12.0,96,0.00,,,0.00,43.000000,,2013-12-03 21:02:00,
2013-12-03 15:44:00,31.0,30.0,-100.00,ENE,70,6.0,13.0,96,0.00,,,0.00,26.000000,,2013-12-03 21:44:00,
2013-12-03 15:54:00,31.0,30.0,-100.00,ENE,70,6.0,13.0,96,0.00,,,0.00,26.000000,,2013-12-03 21:54:00,
2013-12-03 16:03:00,31.0,30.0,-100.00,ENE,70,6.0,13.0,96,0.00,,,0.00,26.000000,,2013-12-03 22:03:00,
2013-12-03 16:43:00,30.0,28.0,-100.00,ENE,70,7.0,16.0,94,0.00,,,0.00,14.000000,,2013-12-03 22:43:00,
2013-12-03 16:53:00,30.0,28.0,-100.00,ENE,70,7.0,16.0,94,0.00,,,0.00,14.000000,,2013-12-03 22:53:00,
2013-12-03 17:02:00,30.0,28.0,-100.00,ENE,70,7.0,16.0,94,0.00,,,0.00,14.000000,,2013-12-03 23:02:00,
2013-12-03 17:42:00,29.0,28.0,-100.00,ENE,66,6.0,15.0,96,0.00,,,0.00,1.000000,,2013-12-03 23:42:00,
2013-12-03 17:52:00,29.0,28.0,-100.00,ENE,66,6.0,15.0,96,0.00,,,0.00,1.000000,,2013-12-03 23:52:00,
2013-12-03 18:02:00,29.0,28.0,-100.00,ENE,66,6.0,15.0,96,0.00,,,0.00,1.000000,,2013-12-04 00:02:00,
2013-12-03 18:42:00,29.0,27.0,-100.00,East,87,9.0,18.0,94,0.00,,,0.00,0.000000,,2013-12-04 00:42:00,
2013-12-03 18:52:00,29.0,27.0,-100.00,East,87,9.0,18.0,94,0.00,,,0.00,0.000000,,2013-12-04 00:52:00,
2013-12-03 19:02:00,29.0,27.0,-100.00,East,87,9.0,18.0,94,0.00,,,0.00,0.000000,,2013-12-04 01:02:00,
2013-12-03 19:42:00,28.0,27.0,-100.00,ENE,78,8.0,16.0,94,0.00,,,0.00,0.000000,,2013-12-04 01:42:00,
2013-12-03 19:52:00,28.0,27.0,-100.00,ENE,78,8.0,16.0,94,0.00,,,0.00,0.000000,,2013-12-04 01:52:00,
2013-12-03 20:02:00,28.0,27.0,-100.00,ENE,78,8.0,16.0,94,0.00,,,0.00,0.000000,,2013-12-04 02:02:00,
2013-12-03 20:42:00,28.0,26.0,-100.00,ENE,77,7.0,14.0,93,0.00,,,0.00,0.000000,,2013-12-04 02:42:00,
2013-12-03 20:52:00,28.0,26.0,-100.00,ENE,77,7.0,14.0,93,0.00,,,0.00,0.000000,,2013-12-04 02:52:00,
2013-12-03 21:02:00,28.0,26.0,-100.00,ENE,77,7.0,14.0,93,0.00,,,0.00,0.000000,,2013-12-04 03:02:00,
2013-12-03 21:44:00,28.0,26.0,-100.00,ENE,74,6.0,14.0,93,0.00,,,0.00,0.000000,,2013-12-04 03:44:00,
2013-12-03 21:54:00,28.0,26.0,-100.00,ENE,74,6.0,14.0,93,0.00,,,0.00,0.000000,,2013-12-04 03:54:00,
2013-12-03 22:03:00,28.0,26.0,-100.00,ENE,74,6.0,14.0,93,0.00,,,0.00,0.000000,,2013-12-04 04:03:00,
2013-12-03 22:43:00,27.0,26.0,-100.00,ENE,61,6.0,11.0,94,0.00,,,0.00,0.000000,,2013-12-04 04:43:00,
2013-12-03 22:52:00,27.0,26.0,-100.00,ENE,61,6.0,11.0,94,0.00,,,0.00,0.000000,,2013-12-04 04:52:00,
2013-12-03 23:02:00,27.0,26.0,-100.00,ENE,61,6.0,11.0,94,0.00,,,0.00,0.000000,,2013-12-04 05:02:00,
2013-12-03 23:42:00,26.0,24.0,-100.00,ENE,65,9.0,14.0,93,0.00,,,0.00,0.000000,,2013-12-04 05:42:00,
2013-12-03 23:53:00,26.0,24.0,-100.00,ENE,65,9.0,14.0,93,0.00,,,0.00,0.000000,,2013-12-04 05:53:00,